createdAt,value
2019-01-19T00:03:13.492Z,14.40
2019-01-19T00:06:43.165Z,17.83
2019-01-19T00:10:11.856Z,14.40
2019-01-19T00:13:40.359Z,15.33
2019-01-19T00:16:56.750Z,14.60
2019-01-19T00:20:19.248Z,14.23
2019-01-19T00:23:34.567Z,15.23
2019-01-19T00:26:47.424Z,16.93
2019-01-19T00:30:15.899Z,14.87
2019-01-19T00:37:21.100Z,14.90
2019-01-19T00:40:49.889Z,17.00
2019-01-19T00:44:05.867Z,16.63
2019-01-19T00:47:28.882Z,16.97
2019-01-19T00:50:57.895Z,14.80
2019-01-19T00:54:26.287Z,14.87
2019-01-19T01:01:28.399Z,17.13
2019-01-19T01:04:56.781Z,22.80
2019-01-19T01:08:25.560Z,23.97
2019-01-19T01:11:50.100Z,16.03
2019-01-19T01:18:25.782Z,16.80
2019-01-19T01:21:54.662Z,15.60
2019-01-19T01:25:23.469Z,17.47
2019-01-19T01:28:51.744Z,14.83
2019-01-19T01:31:53.890Z,13.67
2019-01-19T01:35:12.706Z,15.00
2019-01-19T01:38:45.452Z,14.40
2019-01-19T01:42:26.997Z,13.20
2019-01-19T01:45:41.878Z,13.23
2019-01-19T01:49:10.571Z,15.43
2019-01-19T01:52:39.505Z,13.83
2019-01-19T01:59:44.604Z,16.27
2019-01-19T02:03:13.863Z,15.10
2019-01-19T02:06:28.119Z,14.63
2019-01-19T02:09:56.699Z,13.90
2019-01-19T02:13:25.144Z,14.43
2019-01-19T02:16:48.542Z,13.07
2019-01-19T02:20:16.870Z,14.33
2019-01-19T02:23:29.693Z,17.57
2019-01-19T02:26:47.380Z,13.50
2019-01-19T02:30:16.454Z,14.23
2019-01-19T02:33:18.929Z,14.87
2019-01-19T02:36:47.961Z,15.67
2019-01-19T02:40:16.649Z,19.03
2019-01-19T02:43:30.141Z,16.43
2019-01-19T02:46:45.820Z,16.07
2019-01-19T02:50:29.131Z,20.63
2019-01-19T02:53:42.642Z,17.87
2019-01-19T02:57:02.053Z,17.77
2019-01-19T03:00:30.413Z,20.10
2019-01-19T03:03:33.201Z,19.97
2019-01-19T03:07:02.575Z,19.10
2019-01-19T03:10:32.902Z,16.40
2019-01-19T03:14:01.395Z,17.23
2019-01-19T03:17:30.111Z,16.43
2019-01-19T03:20:55.577Z,15.00
2019-01-19T03:24:23.964Z,15.20
2019-01-19T03:28:00.399Z,16.17
2019-01-19T03:30:56.278Z,13.80
2019-01-19T03:34:24.684Z,15.50
2019-01-19T03:37:41.190Z,16.07
2019-01-19T03:41:32.623Z,14.60
2019-01-19T03:44:45.227Z,14.67
2019-01-19T03:48:13.522Z,15.60
2019-01-19T03:51:29.276Z,15.63
2019-01-19T03:54:57.581Z,14.93
2019-01-19T03:58:15.753Z,14.80
2019-01-19T04:01:44.047Z,14.30
2019-01-19T04:05:12.407Z,14.37
2019-01-19T04:08:40.708Z,14.53
2019-01-19T04:12:09.330Z,15.53
2019-01-19T04:15:38.512Z,14.47
2019-01-19T04:18:51.573Z,15.13
2019-01-19T04:22:20.574Z,15.20
2019-01-19T04:25:49.640Z,15.60
2019-01-19T04:31:45.535Z,14.47
2019-01-19T04:34:36.447Z,14.33
2019-01-19T04:37:46.035Z,14.90
2019-01-19T04:40:37.449Z,14.97
2019-01-19T04:46:58.485Z,16.93
2019-01-19T04:49:50.023Z,15.30
2019-01-19T04:52:59.427Z,14.93
2019-01-19T04:55:50.533Z,14.87
2019-01-19T05:02:11.385Z,15.03
2019-01-19T05:08:32.832Z,14.77
2019-01-19T05:11:24.523Z,15.30
2019-01-19T05:14:15.275Z,15.07
2019-01-19T05:17:45.246Z,15.43
2019-01-19T05:20:36.102Z,15.30
2019-01-19T05:23:27.964Z,15.93
2019-01-19T05:29:30.465Z,15.67
2019-01-19T05:32:14.959Z,15.27
2019-01-19T05:35:06.342Z,16.13
2019-01-19T05:38:15.899Z,14.20
2019-01-19T05:41:07.474Z,15.80
2019-01-19T05:47:08.273Z,14.87
2019-01-19T05:49:59.284Z,15.43
2019-01-19T05:52:50.894Z,14.93
2019-01-19T05:55:41.742Z,14.23
2019-01-19T05:58:33.113Z,16.10
2019-01-19T06:05:14.660Z,15.90
2019-01-19T06:08:05.712Z,13.83
2019-01-19T06:10:57.276Z,13.60
2019-01-19T06:13:48.801Z,13.40
2019-01-19T06:16:39.922Z,14.57
2019-01-19T06:20:09.765Z,13.33
2019-01-19T06:23:01.207Z,15.90
2019-01-19T06:25:52.413Z,12.67
2019-01-19T06:31:52.309Z,14.80
2019-01-19T06:34:56.032Z,13.30
2019-01-19T06:37:36.188Z,13.90
2019-01-19T06:43:37.590Z,14.93
2019-01-19T06:47:07.570Z,14.73
2019-01-19T06:49:58.487Z,14.80
2019-01-19T06:53:28.541Z,15.37
2019-01-19T06:56:19.533Z,15.53
2019-01-19T06:59:17.366Z,16.97
2019-01-19T07:02:43.250Z,15.40
2019-01-19T07:05:36.016Z,15.47
2019-01-19T07:14:35.321Z,14.10
2019-01-19T07:17:26.158Z,15.40
2019-01-19T07:20:57.193Z,15.50
2019-01-19T07:23:49.282Z,17.17
2019-01-19T07:29:37.474Z,15.60
2019-01-19T07:32:21.418Z,15.23
2019-01-19T07:38:29.823Z,18.07
2019-01-19T07:41:20.970Z,21.07
2019-01-19T07:44:12.353Z,15.87
2019-01-19T07:50:20.284Z,17.03
2019-01-19T07:53:29.910Z,19.00
2019-01-19T07:59:19.795Z,18.63
2019-01-19T08:02:11.787Z,17.53
2019-01-19T08:05:17.486Z,21.57
2019-01-19T08:08:29.611Z,17.83
2019-01-19T08:11:09.532Z,18.10
2019-01-19T08:14:01.290Z,21.87
2019-01-19T08:17:31.742Z,19.47
2019-01-19T08:20:22.902Z,20.70
2019-01-19T08:23:13.860Z,19.90
2019-01-19T08:26:43.960Z,22.97
2019-01-19T08:29:34.791Z,18.83
2019-01-19T08:32:17.985Z,19.70
2019-01-19T08:38:20.831Z,21.50
2019-01-19T08:44:26.627Z,22.47
2019-01-19T08:47:18.395Z,20.07
2019-01-19T08:50:11.198Z,23.37
2019-01-19T08:53:02.087Z,20.37
2019-01-19T08:56:12.621Z,21.47
2019-01-19T08:59:42.444Z,22.93
2019-01-19T09:02:33.249Z,24.73
2019-01-19T09:05:25.353Z,22.40
2019-01-19T09:08:19.459Z,22.63
2019-01-19T09:11:10.244Z,25.27
2019-01-19T09:14:01.097Z,25.37
2019-01-19T09:16:51.981Z,27.93
2019-01-19T09:20:02.327Z,27.73
2019-01-19T09:29:27.148Z,27.23
2019-01-19T09:32:10.960Z,28.17
2019-01-19T09:38:31.263Z,33.03
2019-01-19T09:41:22.139Z,34.17
2019-01-19T09:44:13.046Z,41.03
2019-01-19T09:47:03.888Z,40.13
2019-01-19T09:49:55.307Z,32.90
2019-01-19T09:52:47.044Z,31.67
2019-01-19T09:55:38.570Z,36.63
2019-01-19T09:58:30.109Z,33.93
2019-01-19T10:01:21.711Z,34.33
2019-01-19T10:04:12.947Z,35.50
2019-01-19T10:07:03.913Z,34.93
2019-01-19T10:09:54.656Z,38.53
2019-01-19T10:12:45.571Z,35.43
2019-01-19T10:15:36.480Z,37.37
2019-01-19T10:24:28.552Z,35.07
2019-01-19T10:27:19.483Z,35.73
2019-01-19T10:30:51.617Z,36.03
2019-01-19T10:33:36.406Z,36.87
2019-01-19T10:36:27.241Z,33.53
2019-01-19T10:39:18.338Z,37.20
2019-01-19T10:42:09.189Z,38.87
2019-01-19T10:45:00.707Z,34.67
2019-01-19T10:54:00.995Z,37.60
2019-01-19T11:00:42.817Z,34.87
2019-01-19T11:03:53.487Z,39.87
2019-01-19T11:07:23.640Z,32.77
2019-01-19T11:10:54.912Z,35.00
2019-01-19T11:17:01.773Z,38.50
2019-01-19T11:19:52.657Z,36.80
2019-01-19T11:23:22.304Z,36.47
2019-01-19T11:26:13.703Z,37.40
2019-01-19T11:29:04.780Z,36.87
2019-01-19T11:31:48.821Z,39.10
2019-01-19T11:35:18.848Z,39.10
2019-01-19T11:38:12.052Z,36.50
2019-01-19T11:41:03.207Z,36.33
2019-01-19T11:47:24.444Z,36.13
2019-01-19T11:50:54.539Z,34.97
2019-01-19T11:53:46.142Z,38.40
2019-01-19T11:59:53.259Z,38.00
2019-01-19T12:12:17.227Z,34.20
2019-01-19T12:18:39.084Z,31.00
2019-01-19T12:21:30.000Z,35.23
2019-01-19T12:24:20.844Z,41.83
2019-01-19T12:27:50.669Z,31.37
2019-01-19T12:30:41.514Z,30.80
2019-01-19T12:33:25.176Z,27.87
2019-01-19T12:36:16.099Z,26.40
2019-01-19T12:39:47.308Z,27.50
2019-01-19T12:46:00.514Z,23.30
2019-01-19T12:48:51.371Z,24.97
2019-01-19T12:55:51.769Z,20.73
2019-01-19T12:58:42.860Z,24.37
2019-01-19T13:01:34.772Z,25.00
2019-01-19T13:04:25.621Z,25.43
2019-01-19T13:07:36.222Z,23.97
2019-01-19T13:17:58.656Z,16.40
2019-01-19T13:21:27.044Z,19.03
2019-01-19T13:24:44.897Z,17.03
2019-01-19T13:28:13.206Z,18.13
2019-01-19T13:31:41.646Z,16.90
2019-01-19T13:35:09.986Z,19.67
2019-01-19T13:38:42.009Z,16.47
2019-01-19T13:42:08.224Z,18.13
2019-01-19T13:45:37.229Z,18.13
2019-01-19T13:48:36.674Z,21.43
2019-01-19T13:52:06.038Z,20.60
2019-01-19T13:55:34.419Z,28.10
2019-01-19T13:58:49.029Z,19.13
2019-01-19T14:02:19.318Z,18.07
2019-01-19T14:05:47.847Z,18.40
2019-01-19T14:09:16.655Z,18.33
2019-01-19T14:12:32.680Z,16.43
2019-01-19T14:16:00.987Z,19.87
2019-01-19T14:19:14.753Z,21.97
2019-01-19T14:22:43.588Z,25.03
2019-01-19T14:26:19.889Z,26.00
2019-01-19T14:29:50.981Z,21.00
2019-01-19T14:32:52.789Z,23.57
2019-01-19T14:36:21.806Z,25.53
2019-01-19T14:39:50.175Z,25.67
2019-01-19T14:46:43.172Z,21.93
2019-01-19T14:50:11.484Z,25.63
2019-01-19T14:53:39.856Z,24.03
2019-01-19T14:56:55.026Z,23.77
2019-01-19T15:00:23.325Z,25.30
2019-01-19T15:03:52.461Z,24.33
2019-01-19T15:07:21.104Z,23.63
2019-01-19T15:11:06.093Z,24.30
2019-01-19T15:14:37.535Z,24.67
2019-01-19T15:17:55.367Z,21.50
2019-01-19T15:21:08.172Z,21.33
2019-01-19T15:24:36.847Z,23.33
2019-01-19T15:28:05.405Z,23.33
2019-01-19T15:31:52.425Z,23.97
2019-01-19T15:34:54.727Z,21.97
2019-01-19T15:38:23.107Z,24.43
2019-01-19T15:41:52.088Z,23.50
2019-01-19T15:45:07.746Z,25.07
2019-01-19T15:48:36.876Z,23.33
2019-01-19T15:52:06.305Z,24.17
2019-01-19T15:55:34.942Z,23.13
2019-01-19T15:58:49.182Z,22.73
2019-01-19T16:06:04.734Z,23.80
2019-01-19T16:09:53.823Z,36.63
2019-01-19T16:13:11.473Z,43.57
2019-01-19T16:16:35.605Z,30.93
2019-01-19T16:23:51.287Z,26.73
2019-01-19T16:27:20.293Z,24.57
2019-01-19T16:30:48.672Z,22.23
2019-01-19T16:33:50.999Z,29.50
2019-01-19T16:37:08.186Z,30.23
2019-01-19T16:40:24.144Z,31.47
2019-01-19T16:43:46.384Z,33.90
2019-01-19T16:47:15.274Z,39.57
2019-01-19T16:50:44.372Z,67.53
2019-01-19T16:54:13.703Z,66.70
2019-01-19T16:57:42.353Z,58.43
2019-01-19T17:01:10.724Z,54.13
2019-01-19T17:04:27.965Z,32.00
2019-01-19T17:08:05.480Z,28.73
2019-01-19T17:11:34.407Z,43.73
2019-01-19T17:15:03.206Z,36.87
2019-01-19T17:18:31.546Z,28.03
2019-01-19T17:22:00.097Z,26.13
2019-01-19T17:29:15.750Z,31.73
2019-01-19T17:36:01.996Z,25.37
2019-01-19T17:39:30.389Z,25.50
2019-01-19T17:42:59.098Z,29.63
2019-01-19T17:46:27.942Z,31.30
2019-01-19T17:49:56.393Z,39.10
2019-01-19T17:53:25.087Z,61.93
2019-01-19T17:56:53.399Z,54.20
2019-01-19T18:00:07.946Z,60.63
2019-01-19T18:03:36.419Z,73.83
2019-01-19T18:07:05.154Z,71.50
2019-01-19T18:10:33.937Z,44.53
2019-01-19T18:14:02.254Z,34.43
2019-01-19T18:17:30.972Z,31.83
2019-01-19T18:20:57.698Z,34.47
2019-01-19T18:24:26.329Z,33.13
2019-01-19T18:27:54.562Z,31.53
2019-01-19T18:34:22.914Z,26.33
2019-01-19T18:37:51.377Z,32.63
2019-01-19T18:41:19.683Z,29.43
2019-01-19T18:44:47.947Z,31.80
2019-01-19T18:48:16.260Z,27.53
2019-01-19T18:51:44.616Z,34.13
2019-01-19T18:55:13.098Z,31.90
2019-01-19T18:58:41.569Z,33.17
2019-01-19T19:02:09.948Z,31.83
2019-01-19T19:05:23.887Z,32.07
2019-01-19T19:08:37.709Z,37.17
2019-01-19T19:12:05.941Z,38.10
2019-01-19T19:15:07.713Z,35.50
2019-01-19T19:18:36.619Z,37.67
2019-01-19T19:22:11.291Z,40.77
2019-01-19T19:25:39.690Z,34.70
2019-01-19T19:29:08.041Z,32.57
2019-01-19T19:32:04.058Z,33.83
2019-01-19T19:35:19.215Z,29.40
2019-01-19T19:38:47.623Z,32.07
2019-01-19T19:42:16.382Z,34.53
2019-01-19T19:45:37.934Z,32.30
2019-01-19T19:49:06.347Z,32.73
2019-01-19T19:52:16.204Z,30.90
2019-01-19T19:55:04.760Z,34.90
2019-01-19T19:57:55.899Z,28.53
2019-01-19T20:04:18.242Z,30.97
2019-01-19T20:07:09.359Z,34.97
2019-01-19T20:10:00.669Z,33.50
2019-01-19T20:12:51.578Z,33.83
2019-01-19T20:15:42.734Z,31.57
2019-01-19T20:18:33.679Z,34.40
2019-01-19T20:21:24.572Z,33.43
2019-01-19T20:24:15.472Z,39.27
2019-01-19T20:27:06.537Z,44.87
2019-01-19T20:33:06.276Z,40.07
2019-01-19T20:35:58.828Z,35.50
2019-01-19T20:38:50.059Z,38.33
2019-01-19T20:42:01.485Z,33.00
2019-01-19T20:45:31.451Z,34.03
2019-01-19T20:49:01.461Z,31.07
2019-01-19T20:51:52.330Z,37.00
2019-01-19T20:54:43.710Z,37.33
2019-01-19T20:57:34.580Z,39.23
2019-01-19T21:01:04.456Z,36.13
2019-01-19T21:04:36.020Z,39.03
2019-01-19T21:07:27.332Z,37.53
2019-01-19T21:13:15.947Z,37.10
2019-01-19T21:16:06.809Z,34.50
2019-01-19T21:18:57.654Z,38.73
2019-01-19T21:25:25.349Z,34.77
2019-01-19T21:31:38.790Z,34.47
2019-01-19T21:34:30.123Z,34.47
2019-01-19T21:37:20.934Z,32.20
2019-01-19T21:40:12.244Z,30.30
2019-01-19T21:43:03.129Z,33.47
2019-01-19T21:45:53.872Z,34.10
2019-01-19T21:48:44.680Z,33.13
2019-01-19T21:51:35.572Z,33.30
2019-01-19T21:54:26.313Z,33.90
2019-01-19T21:57:17.061Z,39.27
2019-01-19T22:00:10.721Z,31.30
2019-01-19T22:03:01.512Z,35.80
2019-01-19T22:05:52.389Z,30.03
2019-01-19T22:09:02.062Z,34.10
2019-01-19T22:11:53.036Z,31.80
2019-01-19T22:14:44.043Z,32.47
2019-01-19T22:20:31.344Z,30.40
2019-01-19T22:23:22.206Z,28.83
2019-01-19T22:29:24.337Z,33.37
2019-01-19T22:32:07.632Z,35.70
2019-01-19T22:34:58.877Z,29.93
2019-01-19T22:37:49.835Z,27.57
2019-01-19T22:40:40.910Z,29.37
2019-01-19T22:43:34.678Z,31.10
2019-01-19T22:49:37.158Z,33.97
2019-01-19T22:52:28.120Z,29.43
2019-01-19T22:58:29.989Z,33.20
2019-01-19T23:01:43.244Z,35.70
2019-01-19T23:04:34.023Z,33.37
2019-01-19T23:08:03.889Z,33.77
2019-01-19T23:17:41.752Z,34.53
2019-01-19T23:21:11.618Z,33.03
2019-01-19T23:30:45.302Z,32.70
2019-01-19T23:33:28.464Z,37.97
2019-01-19T23:36:19.322Z,34.03
2019-01-19T23:39:11.692Z,34.07
2019-01-19T23:45:52.533Z,30.70
2019-01-19T23:48:43.519Z,37.37
2019-01-19T23:51:34.401Z,33.13
2019-01-19T23:54:25.564Z,34.13
2019-01-19T23:57:17.651Z,33.97
